createdAt,value
2022-08-23T00:01:24.225Z,97199.78
2022-08-23T00:03:53.439Z,97198.75
2022-08-23T00:06:22.071Z,97201.41
2022-08-23T00:08:51.292Z,97195.25
2022-08-23T00:11:36.235Z,97202.22
2022-08-23T00:14:17.959Z,97205.06
2022-08-23T00:16:45.250Z,97206.69
2022-08-23T00:19:16.614Z,97211.78
2022-08-23T00:21:44.677Z,97213.44
2022-08-23T00:24:12.779Z,97208.75
2022-08-23T00:27:05.191Z,97210.97
2022-08-23T00:29:33.543Z,97216.28
2022-08-23T00:32:00.986Z,97217.91
2022-08-23T00:34:28.384Z,97220.34
2022-08-23T00:36:55.695Z,97220.09
2022-08-23T00:39:23.243Z,97224.41
2022-08-23T00:41:50.954Z,97212.53
2022-08-23T00:44:44.643Z,97218.28
2022-08-23T00:47:33.233Z,97220.34
2022-08-23T00:50:23.308Z,97209.28
2022-08-23T00:52:55.999Z,97216.59
2022-08-23T00:55:23.210Z,97223.13
2022-08-23T00:57:50.500Z,97229.06
2022-08-23T01:00:18.042Z,97235.44
2022-08-23T01:02:46.993Z,97232.50
2022-08-23T01:05:14.599Z,97225.88
2022-08-23T01:07:46.982Z,97233.09
2022-08-23T01:10:32.735Z,97233.63
2022-08-23T01:13:06.243Z,97230.16
2022-08-23T01:15:36.960Z,97232.13
2022-08-23T01:18:07.367Z,97241.66
2022-08-23T01:20:48.089Z,97235.22
2022-08-23T01:23:26.959Z,97238.81
2022-08-23T01:25:56.413Z,97244.91
2022-08-23T01:28:23.870Z,97246.97
2022-08-23T01:30:51.744Z,97240.38
2022-08-23T01:33:19.708Z,97235.47
2022-08-23T01:35:53.660Z,97245.53
2022-08-23T01:38:22.751Z,97238.34
2022-08-23T01:40:50.327Z,97244.41
2022-08-23T01:43:20.027Z,97242.06
2022-08-23T01:45:49.641Z,97237.25
2022-08-23T01:48:19.056Z,97238.84
2022-08-23T01:50:46.435Z,97245.09
2022-08-23T01:53:14.134Z,97235.69
2022-08-23T01:55:45.858Z,97241.50
2022-08-23T01:58:12.934Z,97243.16
2022-08-23T02:00:42.406Z,97236.13
2022-08-23T02:03:13.552Z,97240.00
2022-08-23T02:05:42.749Z,97247.81
2022-08-23T02:08:30.195Z,97236.38
2022-08-23T02:10:59.368Z,97251.84
2022-08-23T02:13:27.100Z,97247.56
2022-08-23T02:15:55.105Z,97234.63
2022-08-23T02:18:23.042Z,97244.91
2022-08-23T02:20:51.403Z,97244.00
2022-08-23T02:23:20.605Z,97250.78
2022-08-23T02:25:47.367Z,97255.78
2022-08-23T02:28:14.190Z,97258.50
2022-08-23T02:30:40.950Z,97266.22
2022-08-23T02:33:13.557Z,97272.09
2022-08-23T02:35:42.667Z,97278.31
2022-08-23T02:38:11.750Z,97275.97
2022-08-23T02:40:39.734Z,97274.91
2022-08-23T02:43:06.950Z,97281.22
2022-08-23T02:45:34.926Z,97275.47
2022-08-23T02:48:01.995Z,97282.78
2022-08-23T02:50:39.848Z,97290.03
2022-08-23T02:53:06.725Z,97287.38
2022-08-23T02:55:33.487Z,97288.34
2022-08-23T02:58:00.370Z,97293.88
2022-08-23T03:00:27.403Z,97292.22
2022-08-23T03:02:54.855Z,97298.72
2022-08-23T03:05:21.727Z,97303.38
2022-08-23T03:07:48.371Z,97299.75
2022-08-23T03:10:16.647Z,97297.09
2022-08-23T03:12:49.602Z,97295.06
2022-08-23T03:15:16.446Z,97295.59
2022-08-23T03:17:43.571Z,97300.38
2022-08-23T03:20:10.919Z,97305.94
2022-08-23T03:22:37.804Z,97302.00
2022-08-23T03:25:05.992Z,97299.88
2022-08-23T03:27:45.134Z,97301.25
2022-08-23T03:30:17.788Z,97301.00
2022-08-23T03:32:52.040Z,97303.19
2022-08-23T03:35:19.207Z,97311.44
2022-08-23T03:37:46.384Z,97308.22
2022-08-23T03:40:14.280Z,97309.78
2022-08-23T03:42:41.051Z,97313.81
2022-08-23T03:45:08.132Z,97313.06
2022-08-23T03:47:36.003Z,97319.28
2022-08-23T03:50:02.703Z,97317.94
2022-08-23T03:52:30.318Z,97315.00
2022-08-23T03:54:58.375Z,97323.69
2022-08-23T03:57:27.881Z,97315.72
2022-08-23T03:59:54.531Z,97321.50
2022-08-23T04:02:21.781Z,97327.25
2022-08-23T04:04:48.893Z,97326.91
2022-08-23T04:07:21.808Z,97336.22
2022-08-23T04:09:55.219Z,97332.84
2022-08-23T04:12:24.645Z,97335.94
2022-08-23T04:14:52.328Z,97336.78
2022-08-23T04:17:21.062Z,97329.81
2022-08-23T04:19:49.363Z,97340.41
2022-08-23T04:22:19.853Z,97340.41
2022-08-23T04:24:47.895Z,97344.34
2022-08-23T04:27:16.097Z,97342.34
2022-08-23T04:29:44.404Z,97345.16
2022-08-23T04:32:12.021Z,97344.56
2022-08-23T04:34:42.370Z,97350.50
2022-08-23T04:37:15.813Z,97353.78
2022-08-23T04:40:01.346Z,97352.84
2022-08-23T04:42:35.418Z,97350.94
2022-08-23T04:45:02.507Z,97353.16
2022-08-23T04:47:29.651Z,97359.81
2022-08-23T04:49:59.428Z,97359.19
2022-08-23T04:52:26.084Z,97358.81
2022-08-23T04:54:52.829Z,97356.34
2022-08-23T04:57:42.531Z,97362.91
2022-08-23T05:00:13.562Z,97369.25
2022-08-23T05:02:47.919Z,97373.72
2022-08-23T05:05:14.810Z,97381.69
2022-08-23T05:07:44.548Z,97372.06
2022-08-23T05:10:13.371Z,97378.94
2022-08-23T05:12:43.454Z,97383.59
2022-08-23T05:15:11.034Z,97387.91
2022-08-23T05:17:44.734Z,97387.53
2022-08-23T05:20:11.830Z,97387.44
2022-08-23T05:22:41.437Z,97398.03
2022-08-23T05:25:45.592Z,97399.34
2022-08-23T05:28:13.066Z,97403.38
2022-08-23T05:30:40.974Z,97407.94
2022-08-23T05:33:14.918Z,97402.00
2022-08-23T05:35:41.655Z,97410.97
2022-08-23T05:38:08.508Z,97423.31
2022-08-23T05:40:35.373Z,97417.19
2022-08-23T05:43:09.705Z,97419.31
2022-08-23T05:45:36.944Z,97424.25
2022-08-23T05:48:05.798Z,97419.31
2022-08-23T05:50:52.737Z,97422.50
2022-08-23T05:53:20.599Z,97421.84
2022-08-23T05:55:48.343Z,97424.06
2022-08-23T05:58:17.343Z,97421.84
2022-08-23T06:00:45.085Z,97428.84
2022-08-23T06:03:12.490Z,97421.03
2022-08-23T06:05:41.725Z,97425.97
2022-08-23T06:08:09.073Z,97432.69
2022-08-23T06:10:42.037Z,97424.09
2022-08-23T06:13:43.870Z,97420.06
2022-08-23T06:16:14.705Z,97426.63
2022-08-23T06:18:44.503Z,97429.94
2022-08-23T06:21:38.622Z,97429.69
2022-08-23T06:24:07.222Z,97428.03
2022-08-23T06:26:39.550Z,97427.84
2022-08-23T06:29:14.561Z,97430.38
2022-08-23T06:31:47.655Z,97434.84
2022-08-23T06:34:25.927Z,97429.91
2022-08-23T06:37:14.528Z,97423.25
2022-08-23T06:40:03.421Z,97427.88
2022-08-23T06:42:41.158Z,97428.28
2022-08-23T06:45:09.401Z,97431.81
2022-08-23T06:47:40.512Z,97432.59
2022-08-23T06:50:09.342Z,97430.50
2022-08-23T06:52:54.879Z,97435.50
2022-08-23T06:55:36.115Z,97442.56
2022-08-23T06:58:25.104Z,97446.59
2022-08-23T07:01:45.555Z,97446.75
2022-08-23T07:04:33.485Z,97450.84
2022-08-23T07:07:11.546Z,97450.50
2022-08-23T07:09:40.363Z,97455.84
2022-08-23T07:12:07.812Z,97458.69
2022-08-23T07:14:38.306Z,97456.75
2022-08-23T07:17:05.534Z,97459.28
2022-08-23T07:19:34.705Z,97459.69
2022-08-23T07:22:03.055Z,97457.94
2022-08-23T07:24:33.262Z,97462.25
2022-08-23T07:27:07.058Z,97458.75
2022-08-23T07:29:42.169Z,97462.13
2022-08-23T07:32:09.926Z,97465.25
2022-08-23T07:34:37.163Z,97475.03
2022-08-23T07:37:15.165Z,97464.56
2022-08-23T07:39:44.405Z,97470.75
2022-08-23T07:42:23.568Z,97467.69
2022-08-23T07:44:54.090Z,97471.34
2022-08-23T07:47:22.901Z,97468.84
2022-08-23T07:49:49.899Z,97469.34
2022-08-23T07:52:17.748Z,97483.16
2022-08-23T07:54:48.608Z,97478.50
2022-08-23T07:57:47.228Z,97480.22
2022-08-23T08:00:28.289Z,97476.25
2022-08-23T08:03:10.122Z,97478.13
2022-08-23T08:06:00.870Z,97480.81
2022-08-23T08:08:27.612Z,97475.06
2022-08-23T08:10:55.498Z,97471.78
2022-08-23T08:13:22.241Z,97468.72
2022-08-23T08:15:49.203Z,97465.78
2022-08-23T08:18:16.360Z,97463.66
2022-08-23T08:21:18.916Z,97466.22
2022-08-23T08:23:58.779Z,97470.00
2022-08-23T08:26:44.563Z,97471.00
2022-08-23T08:29:12.143Z,97470.59
2022-08-23T08:31:44.042Z,97470.91
2022-08-23T08:34:14.458Z,97474.84
2022-08-23T08:36:46.571Z,97473.34
2022-08-23T08:39:22.076Z,97474.06
2022-08-23T08:42:13.996Z,97479.09
2022-08-23T08:44:52.455Z,97479.09
2022-08-23T08:47:42.347Z,97476.03
2022-08-23T08:50:24.419Z,97482.25
2022-08-23T08:53:04.151Z,97478.03
2022-08-23T08:55:53.595Z,97478.19
2022-08-23T08:58:36.716Z,97491.31
2022-08-23T09:01:03.672Z,97490.31
2022-08-23T09:03:36.722Z,97492.28
2022-08-23T09:06:23.885Z,97487.59
2022-08-23T09:09:09.416Z,97500.78
2022-08-23T09:11:50.862Z,97500.78
2022-08-23T09:14:38.194Z,97502.25
2022-08-23T09:17:21.762Z,97500.13
2022-08-23T09:19:51.969Z,97499.53
2022-08-23T09:22:32.647Z,97503.09
2022-08-23T09:24:59.632Z,97503.41
2022-08-23T09:27:32.861Z,97509.53
2022-08-23T09:30:01.863Z,97498.31
2022-08-23T09:32:29.730Z,97511.03
2022-08-23T09:35:12.071Z,97512.47
2022-08-23T09:37:58.619Z,97504.22
2022-08-23T09:40:31.099Z,97503.00
2022-08-23T09:43:12.940Z,97509.84
2022-08-23T09:45:52.668Z,97518.59
2022-08-23T09:48:43.274Z,97513.94
2022-08-23T09:51:20.029Z,97507.59
2022-08-23T09:53:51.587Z,97508.34
2022-08-23T09:56:24.834Z,97508.31
2022-08-23T09:58:53.832Z,97511.41
2022-08-23T10:01:39.257Z,97515.41
2022-08-23T10:04:25.868Z,97518.78
2022-08-23T10:06:53.005Z,97522.09
2022-08-23T10:09:32.727Z,97533.66
2022-08-23T10:12:03.147Z,97526.94
2022-08-23T10:14:33.968Z,97526.75
2022-08-23T10:17:34.202Z,97532.00
2022-08-23T10:20:35.673Z,97538.06
2022-08-23T10:23:06.132Z,97548.84
2022-08-23T10:25:58.908Z,97549.16
2022-08-23T10:29:00.016Z,97551.78
2022-08-23T10:31:26.792Z,97548.78
2022-08-23T10:34:12.864Z,97550.16
2022-08-23T10:37:02.193Z,97551.22
2022-08-23T10:39:30.794Z,97550.22
2022-08-23T10:42:13.703Z,97553.56
2022-08-23T10:44:48.239Z,97548.59
2022-08-23T10:47:37.557Z,97548.03
2022-08-23T10:50:13.026Z,97554.13
2022-08-23T10:52:52.257Z,97555.41
2022-08-23T10:55:37.003Z,97556.50
2022-08-23T10:58:11.286Z,97562.25
2022-08-23T11:00:39.602Z,97561.19
2022-08-23T11:03:29.018Z,97563.06
2022-08-23T11:06:22.975Z,97564.16
2022-08-23T11:08:59.636Z,97567.22
2022-08-23T11:12:11.480Z,97572.38
2022-08-23T11:14:42.723Z,97572.19
2022-08-23T11:17:25.070Z,97583.50
2022-08-23T11:19:57.381Z,97584.56
2022-08-23T11:22:28.093Z,97575.28
2022-08-23T11:25:05.739Z,97584.13
2022-08-23T11:27:41.640Z,97577.97
2022-08-23T11:30:37.187Z,97581.66
2022-08-23T11:33:36.118Z,97587.22
2022-08-23T11:36:08.515Z,97587.22
2022-08-23T11:38:56.239Z,97584.56
2022-08-23T11:41:50.231Z,97581.03
2022-08-23T11:44:22.572Z,97578.97
2022-08-23T11:46:59.316Z,97583.06
2022-08-23T11:49:32.065Z,97580.19
2022-08-23T11:52:11.024Z,97585.91
2022-08-23T11:54:47.250Z,97580.09
2022-08-23T11:57:32.279Z,97585.75
2022-08-23T12:00:17.459Z,97588.97
2022-08-23T12:03:06.379Z,97576.06
2022-08-23T12:05:39.511Z,97578.03
2022-08-23T12:08:07.142Z,97582.13
2022-08-23T12:10:46.387Z,97587.81
2022-08-23T12:13:22.479Z,97583.03
2022-08-23T12:16:16.266Z,97585.88
2022-08-23T12:18:47.607Z,97575.72
2022-08-23T12:21:39.719Z,97580.47
2022-08-23T12:24:18.697Z,97572.41
2022-08-23T12:26:51.928Z,97576.50
2022-08-23T12:29:33.039Z,97567.28
2022-08-23T12:32:18.102Z,97578.00
2022-08-23T12:34:47.728Z,97570.59
2022-08-23T12:38:07.129Z,97575.06
2022-08-23T12:40:50.205Z,97566.72
2022-08-23T12:43:26.081Z,97573.75
2022-08-23T12:45:57.036Z,97572.41
2022-08-23T12:48:28.051Z,97575.00
2022-08-23T12:51:06.449Z,97568.94
2022-08-23T12:53:44.527Z,97568.31
2022-08-23T12:56:19.528Z,97576.63
2022-08-23T12:58:54.035Z,97576.13
2022-08-23T13:01:29.808Z,97578.03
2022-08-23T13:04:04.371Z,97582.50
2022-08-23T13:06:42.226Z,97579.66
2022-08-23T13:09:24.097Z,97584.50
2022-08-23T13:11:52.357Z,97580.00
2022-08-23T13:14:24.737Z,97581.47
2022-08-23T13:16:51.576Z,97570.47
2022-08-23T13:19:23.179Z,97569.94
2022-08-23T13:22:19.077Z,97567.06
2022-08-23T13:25:27.340Z,97566.97
2022-08-23T13:27:57.532Z,97560.13
2022-08-23T13:30:31.219Z,97554.38
2022-08-23T13:33:03.950Z,97553.47
2022-08-23T13:35:36.142Z,97561.50
2022-08-23T13:38:21.202Z,97553.69
2022-08-23T13:41:04.705Z,97552.09
2022-08-23T13:43:40.095Z,97556.59
2022-08-23T13:46:22.201Z,97550.16
2022-08-23T13:48:58.569Z,97548.25
2022-08-23T13:51:37.120Z,97548.41
2022-08-23T13:54:12.005Z,97546.00
2022-08-23T13:56:51.068Z,97549.88
2022-08-23T13:59:31.555Z,97543.91
2022-08-23T14:02:07.451Z,97550.03
2022-08-23T14:04:34.799Z,97540.63
2022-08-23T14:07:01.446Z,97555.03
2022-08-23T14:09:28.148Z,97550.94
2022-08-23T14:11:59.032Z,97544.66
2022-08-23T14:14:30.046Z,97545.81
2022-08-23T14:17:00.811Z,97560.63
2022-08-23T14:22:17.869Z,97546.56
2022-08-23T14:24:45.460Z,97557.16
2022-08-23T14:27:12.836Z,97553.06
2022-08-23T14:29:41.791Z,97554.38
2022-08-23T14:32:08.461Z,97553.84
2022-08-23T14:34:35.396Z,97557.44
2022-08-23T14:39:48.984Z,97564.03
2022-08-23T14:42:21.951Z,97562.06
2022-08-23T14:44:48.753Z,97558.59
2022-08-23T14:47:15.610Z,97573.63
2022-08-23T14:49:42.306Z,97567.31
2022-08-23T14:52:09.119Z,97565.91
2022-08-23T14:54:35.939Z,97566.94
2022-08-23T14:57:02.759Z,97571.09
2022-08-23T14:59:29.443Z,97564.50
2022-08-23T15:01:57.227Z,97582.63
2022-08-23T15:04:25.008Z,97572.56
2022-08-23T15:07:17.141Z,97575.88
2022-08-23T15:09:45.530Z,97577.94
2022-08-23T15:12:57.347Z,97583.28
2022-08-23T15:14:59.034Z,97584.31
2022-08-23T15:17:30.945Z,97581.81
2022-08-23T15:19:59.189Z,97586.56
2022-08-23T15:22:26.049Z,97582.44
2022-08-23T15:24:52.966Z,97588.66
2022-08-23T15:27:22.604Z,97589.28
2022-08-23T15:29:49.665Z,97586.38
2022-08-23T15:32:18.516Z,97589.06
2022-08-23T15:34:49.625Z,97589.91
2022-08-23T15:37:20.284Z,97594.03
2022-08-23T15:39:47.025Z,97592.38
2022-08-23T15:42:20.145Z,97599.16
2022-08-23T15:44:48.341Z,97600.00
2022-08-23T15:47:26.353Z,97603.09
2022-08-23T15:49:53.277Z,97602.47
2022-08-23T15:52:20.462Z,97607.59
2022-08-23T15:54:50.062Z,97598.34
2022-08-23T15:57:20.866Z,97601.66
2022-08-23T15:59:47.816Z,97604.31
2022-08-23T16:02:14.926Z,97607.41
2022-08-23T16:04:42.179Z,97604.50
2022-08-23T16:07:12.956Z,97606.59
2022-08-23T16:09:40.855Z,97598.56
2022-08-23T16:12:08.617Z,97606.59
2022-08-23T16:14:36.463Z,97604.53
2022-08-23T16:17:03.687Z,97607.41
2022-08-23T16:19:31.064Z,97596.50
2022-08-23T16:21:57.852Z,97609.88
2022-08-23T16:24:25.025Z,97603.28
2022-08-23T16:26:52.231Z,97600.81
2022-08-23T16:29:21.513Z,97597.69
2022-08-23T16:31:50.439Z,97596.66
2022-08-23T16:34:19.127Z,97596.25
2022-08-23T16:36:55.044Z,97600.75
2022-08-23T16:39:21.824Z,97601.19
2022-08-23T16:41:48.534Z,97604.88
2022-08-23T16:44:16.798Z,97605.28
2022-08-23T16:46:44.131Z,97605.28
2022-08-23T16:49:13.004Z,97603.84
2022-08-23T16:51:39.783Z,97614.72
2022-08-23T16:54:08.284Z,97612.44
2022-08-23T16:56:37.275Z,97617.41
2022-08-23T16:59:06.668Z,97620.06
2022-08-23T17:01:48.288Z,97622.50
2022-08-23T17:04:15.707Z,97621.91
2022-08-23T17:06:43.266Z,97626.63
2022-08-23T17:09:10.133Z,97623.31
2022-08-23T17:11:37.431Z,97623.31
2022-08-23T17:14:05.087Z,97619.22
2022-08-23T17:16:32.871Z,97629.91
2022-08-23T17:18:59.715Z,97626.16
2022-08-23T17:21:27.113Z,97627.19
2022-08-23T17:23:56.310Z,97623.91
2022-08-23T17:26:25.427Z,97621.25
2022-08-23T17:28:52.254Z,97628.63
2022-08-23T17:31:22.443Z,97633.78
2022-08-23T17:33:49.178Z,97643.63
2022-08-23T17:36:28.802Z,97647.72
2022-08-23T17:38:57.205Z,97649.75
2022-08-23T17:41:25.287Z,97647.28
2022-08-23T17:43:51.973Z,97650.34
2022-08-23T17:46:20.221Z,97648.09
2022-08-23T17:48:47.597Z,97651.56
2022-08-23T17:51:14.288Z,97658.97
2022-08-23T17:53:43.155Z,97655.66
2022-08-23T17:56:12.494Z,97667.56
2022-08-23T17:58:39.592Z,97669.78
2022-08-23T18:01:06.847Z,97666.06
2022-08-23T18:03:33.639Z,97671.59
2022-08-23T18:06:01.143Z,97670.97
2022-08-23T18:08:43.814Z,97669.06
2022-08-23T18:11:10.614Z,97678.91
2022-08-23T18:13:37.318Z,97681.34
2022-08-23T18:16:05.046Z,97683.38
2022-08-23T18:18:32.388Z,97683.72
2022-08-23T18:21:09.178Z,97689.06
2022-08-23T18:23:35.880Z,97685.31
2022-08-23T18:26:08.516Z,97686.75
2022-08-23T18:28:35.358Z,97685.69
2022-08-23T18:31:03.846Z,97693.88
2022-08-23T18:33:46.434Z,97700.44
2022-08-23T18:36:15.590Z,97707.59
2022-08-23T18:38:42.374Z,97708.81
2022-08-23T18:41:09.029Z,97711.50
2022-08-23T18:43:37.269Z,97715.59
2022-08-23T18:46:05.301Z,97716.59
2022-08-23T18:48:33.000Z,97715.94
2022-08-23T18:51:00.626Z,97724.94
2022-08-23T18:53:28.067Z,97724.31
2022-08-23T18:55:54.953Z,97720.59
2022-08-23T18:58:21.682Z,97725.28
2022-08-23T19:00:50.631Z,97719.13
2022-08-23T19:03:17.892Z,97721.34
2022-08-23T19:05:44.646Z,97721.16
2022-08-23T19:08:13.130Z,97727.31
2022-08-23T19:10:42.083Z,97735.47
2022-08-23T19:13:09.623Z,97738.16
2022-08-23T19:15:38.173Z,97742.88
2022-08-23T19:18:05.013Z,97734.50
2022-08-23T19:20:31.672Z,97729.34
2022-08-23T19:22:58.821Z,97729.91
2022-08-23T19:25:27.300Z,97739.56
2022-08-23T19:27:56.515Z,97744.25
2022-08-23T19:30:23.242Z,97754.28
2022-08-23T19:32:54.958Z,97748.94
2022-08-23T19:35:21.603Z,97752.91
2022-08-23T19:37:50.673Z,97756.94
2022-08-23T19:40:17.928Z,97756.38
2022-08-23T19:42:44.750Z,97760.88
2022-08-23T19:45:11.939Z,97760.44
2022-08-23T19:47:40.292Z,97759.16
2022-08-23T19:50:09.660Z,97758.34
2022-08-23T19:52:36.898Z,97769.81
2022-08-23T19:55:07.424Z,97763.41
2022-08-23T19:57:35.511Z,97766.25
2022-08-23T20:00:08.859Z,97771.41
2022-08-23T20:02:35.530Z,97776.72
2022-08-23T20:05:02.258Z,97778.13
2022-08-23T20:07:29.213Z,97775.13
2022-08-23T20:09:57.402Z,97780.84
2022-08-23T20:12:25.887Z,97772.63
2022-08-23T20:14:54.028Z,97779.78
2022-08-23T20:17:22.834Z,97767.28
2022-08-23T20:19:49.725Z,97775.91
2022-08-23T20:22:35.337Z,97778.38
2022-08-23T20:25:11.731Z,97781.03
2022-08-23T20:27:38.442Z,97780.44
2022-08-23T20:30:06.888Z,97772.16
2022-08-23T20:32:33.897Z,97773.75
2022-08-23T20:35:03.140Z,97779.25
2022-08-23T20:37:30.546Z,97778.19
2022-08-23T20:39:57.490Z,97774.69
2022-08-23T20:42:24.287Z,97778.75
2022-08-23T20:44:51.175Z,97774.41
2022-08-23T20:47:17.873Z,97779.75
2022-08-23T20:49:44.821Z,97771.47
2022-08-23T20:52:12.013Z,97769.19
2022-08-23T20:54:38.832Z,97773.06
2022-08-23T20:57:05.620Z,97776.53
2022-08-23T20:59:32.291Z,97773.06
2022-08-23T21:01:59.227Z,97767.56
2022-08-23T21:04:30.079Z,97771.84
2022-08-23T21:06:58.205Z,97768.38
2022-08-23T21:09:29.339Z,97772.22
2022-08-23T21:11:56.633Z,97779.13
2022-08-23T21:14:23.944Z,97764.09
2022-08-23T21:16:50.762Z,97769.88
2022-08-23T21:19:17.484Z,97777.59
2022-08-23T21:21:44.443Z,97776.22
2022-08-23T21:24:12.263Z,97773.03
2022-08-23T21:26:39.759Z,97774.31
2022-08-23T21:29:07.815Z,97775.41
2022-08-23T21:31:35.010Z,97781.81
2022-08-23T21:34:02.162Z,97773.94
2022-08-23T21:36:28.850Z,97778.63
2022-08-23T21:38:58.024Z,97777.06
2022-08-23T21:41:43.695Z,97781.94
2022-08-23T21:44:19.219Z,97781.97
2022-08-23T21:46:47.743Z,97780.50
2022-08-23T21:49:16.195Z,97782.50
2022-08-23T21:51:44.679Z,97778.75
2022-08-23T21:54:13.087Z,97780.13
2022-08-23T21:56:40.203Z,97771.50
2022-08-23T21:59:09.579Z,97769.97
2022-08-23T22:01:36.859Z,97770.34
2022-08-23T22:04:06.260Z,97770.34
2022-08-23T22:06:35.100Z,97766.66
2022-08-23T22:09:03.431Z,97761.34
2022-08-23T22:11:30.474Z,97766.00
2022-08-23T22:13:57.342Z,97759.22
2022-08-23T22:16:24.352Z,97762.53
2022-08-23T22:18:51.098Z,97759.38
2022-08-23T22:21:17.766Z,97759.59
2022-08-23T22:23:44.554Z,97750.16
2022-08-23T22:26:12.673Z,97757.94
2022-08-23T22:28:39.858Z,97755.25
2022-08-23T22:31:07.424Z,97754.94
2022-08-23T22:33:34.370Z,97759.22
2022-08-23T22:36:07.353Z,97752.28
2022-08-23T22:38:34.082Z,97745.66
2022-08-23T22:41:00.944Z,97746.47
2022-08-23T22:43:27.770Z,97742.81
2022-08-23T22:46:00.809Z,97735.69
2022-08-23T22:48:30.322Z,97731.84
2022-08-23T22:51:06.417Z,97738.69
2022-08-23T22:53:35.859Z,97734.78
2022-08-23T22:56:02.911Z,97729.38
2022-08-23T22:58:29.583Z,97721.47
2022-08-23T23:00:56.531Z,97726.84
2022-08-23T23:03:23.363Z,97725.25
2022-08-23T23:05:50.469Z,97727.25
2022-08-23T23:08:29.333Z,97726.50
2022-08-23T23:11:02.013Z,97729.66
2022-08-23T23:13:30.122Z,97730.97
2022-08-23T23:15:57.863Z,97723.38
2022-08-23T23:18:26.123Z,97733.63
2022-08-23T23:20:53.029Z,97718.41
2022-08-23T23:23:22.371Z,97717.75
2022-08-23T23:25:50.358Z,97713.81
2022-08-23T23:28:18.520Z,97723.47
2022-08-23T23:30:47.284Z,97720.16
2022-08-23T23:33:14.717Z,97719.50
2022-08-23T23:35:41.921Z,97722.03
2022-08-23T23:38:10.112Z,97725.56
2022-08-23T23:40:37.740Z,97717.91
2022-08-23T23:43:05.463Z,97718.78
2022-08-23T23:45:32.468Z,97721.59
2022-08-23T23:47:59.877Z,97714.50
2022-08-23T23:50:27.066Z,97721.59
2022-08-23T23:52:54.065Z,97716.66
2022-08-23T23:55:21.920Z,97726.75
2022-08-23T23:57:48.721Z,97720.84
